Time,TemperatureF,DewpointF,PressureIn,WindDirection,WindDirectionDegrees,WindSpeedMPH,WindSpeedGustMPH,Humidity,HourlyPrecipIn,Conditions,Clouds,dailyrainin,SoftwareType,DateUTC
2013-02-20 00:00:00,40.8,33.4,29.82,South,180,0.0,0.0,75,0.00,,,0.00,WUHU216HW,2013-02-20 08:00:00,
2013-02-20 00:05:00,40.8,33.4,29.83,WNW,293,0.0,0.0,75,0.00,,,0.00,WUHU216HW,2013-02-20 08:05:00,
2013-02-20 00:10:00,41.0,33.6,29.83,East,90,0.0,0.0,75,0.00,,,0.00,WUHU216HW,2013-02-20 08:10:00,
2013-02-20 00:15:00,41.0,33.6,29.83,NW,315,0.0,0.0,75,0.00,,,0.00,WUHU216HW,2013-02-20 08:15:00,
2013-02-20 00:20:00,41.0,33.6,29.83,South,180,0.0,0.8,75,0.00,,,0.00,WUHU216HW,2013-02-20 08:20:00,
2013-02-20 00:25:00,40.8,33.4,29.83,NW,315,0.0,0.8,75,0.00,,,0.00,WUHU216HW,2013-02-20 08:25:00,
2013-02-20 00:31:00,40.8,33.4,29.83,WSW,248,0.0,0.0,75,0.00,,,0.00,WUHU216HW,2013-02-20 08:31:00,
2013-02-20 00:36:00,40.8,33.4,29.83,West,270,0.0,0.0,75,0.00,,,0.00,WUHU216HW,2013-02-20 08:36:00,
2013-02-20 00:41:00,40.6,33.2,29.83,West,270,0.0,0.0,75,0.00,,,0.00,WUHU216HW,2013-02-20 08:41:00,
2013-02-20 00:46:00,40.6,33.2,29.83,West,270,0.0,0.0,75,0.00,,,0.00,WUHU216HW,2013-02-20 08:46:00,
2013-02-20 00:51:00,40.6,33.2,29.83,WNW,293,0.0,0.0,75,0.00,,,0.00,WUHU216HW,2013-02-20 08:51:00,
2013-02-20 00:56:00,40.4,33.0,29.83,WNW,293,0.0,0.0,75,0.00,,,0.00,WUHU216HW,2013-02-20 08:56:00,
2013-02-20 01:01:00,40.4,33.0,29.83,WNW,293,0.0,0.0,75,0.00,,,0.00,WUHU216HW,2013-02-20 09:01:00,
2013-02-20 01:06:00,40.4,33.0,29.83,WNW,293,0.0,0.0,75,0.00,,,0.00,WUHU216HW,2013-02-20 09:06:00,
2013-02-20 01:11:00,40.2,32.9,29.83,WNW,293,0.0,0.0,75,0.00,,,0.00,WUHU216HW,2013-02-20 09:11:00,
2013-02-20 01:16:00,40.2,33.2,29.83,WNW,293,0.0,0.0,76,0.00,,,0.00,WUHU216HW,2013-02-20 09:16:00,
2013-02-20 01:21:00,40.1,33.0,29.83,WNW,293,0.0,0.0,76,0.00,,,0.00,WUHU216HW,2013-02-20 09:21:00,
2013-02-20 01:26:00,40.1,33.0,29.83,WNW,293,0.0,0.0,76,0.00,,,0.00,WUHU216HW,2013-02-20 09:26:00,
2013-02-20 01:31:00,39.9,32.9,29.83,WNW,293,0.0,0.0,76,0.00,,,0.00,WUHU216HW,2013-02-20 09:31:00,
2013-02-20 01:36:00,39.9,32.9,29.83,WNW,293,0.0,0.0,76,0.00,,,0.00,WUHU216HW,2013-02-20 09:36:00,
2013-02-20 01:41:00,39.9,32.9,29.84,West,270,0.0,0.0,76,0.00,,,0.00,WUHU216HW,2013-02-20 09:41:00,
2013-02-20 01:46:00,39.9,32.9,29.84,NNE,23,0.0,0.0,76,0.00,,,0.00,WUHU216HW,2013-02-20 09:46:00,
2013-02-20 01:51:00,39.9,32.9,29.84,West,270,0.0,0.0,76,0.00,,,0.00,WUHU216HW,2013-02-20 09:51:00,
2013-02-20 01:56:00,39.7,32.7,29.85,WNW,293,1.7,1.7,76,0.00,,,0.00,WUHU216HW,2013-02-20 09:56:00,
2013-02-20 02:01:00,39.7,32.7,29.84,NW,315,0.0,1.7,76,0.00,,,0.00,WUHU216HW,2013-02-20 10:01:00,
2013-02-20 02:06:00,39.7,32.7,29.85,NW,315,0.0,3.3,76,0.00,,,0.00,WUHU216HW,2013-02-20 10:06:00,
2013-02-20 02:11:00,39.5,32.5,29.85,South,180,0.0,3.3,76,0.00,,,0.00,WUHU216HW,2013-02-20 10:11:00,
2013-02-20 02:16:00,39.7,32.7,29.85,SW,225,0.0,0.0,76,0.00,,,0.00,WUHU216HW,2013-02-20 10:16:00,
2013-02-20 02:21:00,39.5,32.5,29.85,SW,225,0.0,0.0,76,0.00,,,0.00,WUHU216HW,2013-02-20 10:21:00,
2013-02-20 02:26:00,39.5,32.5,29.85,WSW,248,0.0,0.0,76,0.00,,,0.00,WUHU216HW,2013-02-20 10:26:00,
2013-02-20 02:31:00,39.5,32.5,29.85,SW,225,0.0,0.0,76,0.00,,,0.00,WUHU216HW,2013-02-20 10:31:00,
2013-02-20 02:36:00,39.5,32.5,29.85,West,270,0.0,0.0,76,0.00,,,0.00,WUHU216HW,2013-02-20 10:36:00,
2013-02-20 02:41:00,39.5,32.5,29.85,West,270,0.0,0.8,76,0.00,,,0.00,WUHU216HW,2013-02-20 10:41:00,
2013-02-20 02:46:00,39.5,32.5,29.86,West,270,0.0,0.8,76,0.00,,,0.00,WUHU216HW,2013-02-20 10:46:00,
2013-02-20 02:51:00,39.5,32.5,29.86,West,270,0.0,0.0,76,0.00,,,0.00,WUHU216HW,2013-02-20 10:51:00,
2013-02-20 02:56:00,39.3,32.4,29.86,West,270,0.0,0.0,76,0.00,,,0.00,WUHU216HW,2013-02-20 10:56:00,
2013-02-20 03:01:00,39.3,32.7,29.85,West,270,0.0,0.0,77,0.00,,,0.00,WUHU216HW,2013-02-20 11:01:00,
2013-02-20 03:06:00,39.3,32.7,29.86,West,270,0.0,0.0,77,0.00,,,0.00,WUHU216HW,2013-02-20 11:06:00,
2013-02-20 03:11:00,39.3,32.7,29.86,West,270,0.0,0.0,77,0.00,,,0.00,WUHU216HW,2013-02-20 11:11:00,
2013-02-20 03:16:00,39.3,32.7,29.86,West,270,0.0,0.0,77,0.00,,,0.00,WUHU216HW,2013-02-20 11:16:00,
2013-02-20 03:21:00,39.3,32.7,29.86,West,270,0.0,0.0,77,0.00,,,0.00,WUHU216HW,2013-02-20 11:21:00,
2013-02-20 03:26:00,39.3,32.7,29.86,West,270,0.0,0.0,77,0.00,,,0.00,WUHU216HW,2013-02-20 11:26:00,
2013-02-20 03:31:00,39.3,32.7,29.86,West,270,0.0,0.0,77,0.00,,,0.00,WUHU216HW,2013-02-20 11:31:00,
2013-02-20 03:36:00,39.3,32.7,29.86,West,270,0.0,0.0,77,0.00,,,0.00,WUHU216HW,2013-02-20 11:36:00,
2013-02-20 03:41:00,39.3,32.7,29.86,West,270,0.0,0.0,77,0.00,,,0.00,WUHU216HW,2013-02-20 11:41:00,
2013-02-20 03:46:00,39.3,32.7,29.86,West,270,0.0,0.0,77,0.00,,,0.00,WUHU216HW,2013-02-20 11:46:00,
2013-02-20 03:51:00,39.0,32.4,29.87,West,270,0.0,0.0,77,0.00,,,0.00,WUHU216HW,2013-02-20 11:51:00,
2013-02-20 03:56:00,39.0,32.4,29.87,West,270,0.0,0.0,77,0.00,,,0.00,WUHU216HW,2013-02-20 11:56:00,
2013-02-20 04:01:00,39.2,32.5,29.87,West,270,0.0,0.0,77,0.00,,,0.00,WUHU216HW,2013-02-20 12:01:00,
2013-02-20 04:06:00,39.2,32.5,29.87,West,270,0.0,0.0,77,0.00,,,0.00,WUHU216HW,2013-02-20 12:06:00,
2013-02-20 04:11:00,39.2,32.5,29.87,West,270,0.0,0.0,77,0.00,,,0.00,WUHU216HW,2013-02-20 12:11:00,
2013-02-20 04:16:00,39.2,32.5,29.87,West,270,0.0,0.0,77,0.00,,,0.00,WUHU216HW,2013-02-20 12:16:00,
2013-02-20 04:21:00,39.2,32.5,29.87,West,270,0.0,0.0,77,0.00,,,0.00,WUHU216HW,2013-02-20 12:21:00,
2013-02-20 04:26:00,39.3,32.7,29.87,West,270,0.0,0.0,77,0.00,,,0.00,WUHU216HW,2013-02-20 12:26:00,
2013-02-20 04:31:00,39.2,32.5,29.88,WNW,293,0.0,0.0,77,0.00,,,0.00,WUHU216HW,2013-02-20 12:31:00,
2013-02-20 04:36:00,39.3,32.7,29.88,West,270,0.0,0.0,77,0.00,,,0.00,WUHU216HW,2013-02-20 12:36:00,
2013-02-20 04:41:00,39.3,32.7,29.88,West,270,0.0,0.0,77,0.00,,,0.00,WUHU216HW,2013-02-20 12:41:00,
2013-02-20 04:47:00,39.2,32.5,29.88,WNW,293,0.0,0.0,77,0.00,,,0.00,WUHU216HW,2013-02-20 12:47:00,
2013-02-20 04:52:00,39.2,32.5,29.88,West,270,0.0,0.0,77,0.00,,,0.00,WUHU216HW,2013-02-20 12:52:00,
2013-02-20 04:57:00,39.3,32.7,29.88,West,270,0.0,0.0,77,0.00,,,0.00,WUHU216HW,2013-02-20 12:57:00,
2013-02-20 05:02:00,39.3,32.7,29.88,West,270,0.0,0.0,77,0.00,,,0.00,WUHU216HW,2013-02-20 13:02:00,
2013-02-20 05:07:00,39.3,32.7,29.88,West,270,0.0,0.0,77,0.00,,,0.00,WUHU216HW,2013-02-20 13:07:00,
2013-02-20 05:12:00,39.3,32.7,29.88,WNW,293,0.0,0.0,77,0.00,,,0.00,WUHU216HW,2013-02-20 13:12:00,
2013-02-20 05:17:00,39.3,32.7,29.88,West,270,0.0,0.0,77,0.00,,,0.00,WUHU216HW,2013-02-20 13:17:00,
2013-02-20 05:22:00,39.3,32.7,29.88,WSW,248,0.0,0.0,77,0.00,,,0.00,WUHU216HW,2013-02-20 13:22:00,
2013-02-20 05:27:00,39.3,32.7,29.89,SSW,203,0.0,0.0,77,0.00,,,0.00,WUHU216HW,2013-02-20 13:27:00,
2013-02-20 05:32:00,39.3,32.7,29.89,WSW,248,0.0,0.0,77,0.00,,,0.00,WUHU216HW,2013-02-20 13:32:00,
2013-02-20 05:37:00,39.3,32.7,29.89,SE,135,0.0,0.0,77,0.00,,,0.00,WUHU216HW,2013-02-20 13:37:00,
2013-02-20 05:42:00,39.3,32.4,29.89,SE,135,0.0,0.0,76,0.00,,,0.00,WUHU216HW,2013-02-20 13:42:00,
2013-02-20 05:47:00,39.3,32.4,29.89,SSE,158,0.0,0.0,76,0.00,,,0.00,WUHU216HW,2013-02-20 13:47:00,
2013-02-20 05:52:00,39.3,32.4,29.89,West,270,0.0,0.0,76,0.00,,,0.00,WUHU216HW,2013-02-20 13:52:00,
2013-02-20 05:57:00,39.3,32.4,29.89,NNW,338,0.4,0.4,76,0.00,,,0.00,WUHU216HW,2013-02-20 13:57:00,
2013-02-20 06:02:00,39.3,32.4,29.89,WNW,293,0.0,0.4,76,0.00,,,0.00,WUHU216HW,2013-02-20 14:02:00,
2013-02-20 06:07:00,39.3,32.4,29.89,SW,225,0.0,0.4,76,0.00,,,0.00,WUHU216HW,2013-02-20 14:07:00,
2013-02-20 06:12:00,39.3,32.4,29.89,WSW,248,0.8,0.8,76,0.00,,,0.00,WUHU216HW,2013-02-20 14:12:00,
2013-02-20 06:17:00,39.3,32.4,29.90,West,270,0.0,0.8,76,0.00,,,0.00,WUHU216HW,2013-02-20 14:17:00,
2013-02-20 06:22:00,39.3,32.4,29.90,WSW,248,0.0,0.8,76,0.00,,,0.00,WUHU216HW,2013-02-20 14:22:00,
2013-02-20 06:27:00,39.3,32.4,29.90,SW,225,0.0,0.0,76,0.00,,,0.00,WUHU216HW,2013-02-20 14:27:00,
2013-02-20 06:32:00,39.3,32.4,29.90,SW,225,0.0,0.0,76,0.00,,,0.00,WUHU216HW,2013-02-20 14:32:00,
2013-02-20 06:37:00,39.3,32.4,29.90,SSW,203,0.0,0.0,76,0.00,,,0.00,WUHU216HW,2013-02-20 14:37:00,
2013-02-20 06:42:00,39.5,32.5,29.91,SW,225,0.0,0.0,76,0.00,,,0.00,WUHU216HW,2013-02-20 14:42:00,
2013-02-20 06:47:00,39.5,32.5,29.90,NE,45,0.0,0.0,76,0.00,,,0.00,WUHU216HW,2013-02-20 14:47:00,
2013-02-20 06:52:00,39.7,32.7,29.91,East,90,0.0,0.0,76,0.00,,,0.00,WUHU216HW,2013-02-20 14:52:00,
2013-02-20 06:57:00,39.7,32.7,29.91,South,180,0.0,0.0,76,0.00,,,0.00,WUHU216HW,2013-02-20 14:57:00,
2013-02-20 07:02:00,39.7,32.7,29.92,North,0,0.0,0.0,76,0.00,,,0.00,WUHU216HW,2013-02-20 15:02:00,
2013-02-20 07:07:00,39.7,32.7,29.91,North,0,0.0,0.0,76,0.00,,,0.00,WUHU216HW,2013-02-20 15:07:00,
2013-02-20 07:12:00,39.7,32.7,29.92,WSW,248,0.0,0.0,76,0.00,,,0.00,WUHU216HW,2013-02-20 15:12:00,
2013-02-20 07:17:00,39.7,32.7,29.92,West,270,0.0,0.0,76,0.00,,,0.00,WUHU216HW,2013-02-20 15:17:00,
2013-02-20 07:22:00,39.7,32.7,29.93,SW,225,0.0,0.0,76,0.00,,,0.00,WUHU216HW,2013-02-20 15:22:00,
2013-02-20 07:27:00,39.9,32.9,29.93,WSW,248,0.0,0.0,76,0.00,,,0.00,WUHU216HW,2013-02-20 15:27:00,
2013-02-20 07:32:00,39.7,32.7,29.93,East,90,1.3,1.3,76,0.00,,,0.00,WUHU216HW,2013-02-20 15:32:00,
2013-02-20 07:37:00,39.9,32.9,29.93,South,180,0.0,1.3,76,0.00,,,0.00,WUHU216HW,2013-02-20 15:37:00,
2013-02-20 07:42:00,39.7,32.7,29.93,WNW,293,0.0,3.1,76,0.00,,,0.00,WUHU216HW,2013-02-20 15:42:00,
2013-02-20 07:47:00,39.9,32.9,29.93,WNW,293,0.0,3.1,76,0.00,,,0.00,WUHU216HW,2013-02-20 15:47:00,
2013-02-20 07:53:00,40.1,33.0,29.94,WNW,293,0.0,0.0,76,0.00,,,0.00,WUHU216HW,2013-02-20 15:53:00,
2013-02-20 07:58:00,40.2,33.2,29.94,SSW,203,0.0,0.0,76,0.00,,,0.00,WUHU216HW,2013-02-20 15:58:00,
2013-02-20 08:03:00,40.4,33.4,29.94,South,180,0.0,0.0,76,0.00,,,0.00,WUHU216HW,2013-02-20 16:03:00,
2013-02-20 08:08:00,40.6,33.6,29.94,WNW,293,0.0,0.0,76,0.00,,,0.00,WUHU216HW,2013-02-20 16:08:00,
2013-02-20 08:13:00,40.8,33.4,29.94,WSW,248,0.0,0.0,75,0.00,,,0.00,WUHU216HW,2013-02-20 16:13:00,
2013-02-20 08:18:00,40.8,33.4,29.95,NW,315,0.0,0.0,75,0.00,,,0.00,WUHU216HW,2013-02-20 16:18:00,
2013-02-20 08:23:00,41.1,33.8,29.95,WNW,293,0.0,0.0,75,0.00,,,0.00,WUHU216HW,2013-02-20 16:23:00,
2013-02-20 08:28:00,41.3,33.9,29.95,West,270,0.0,0.0,75,0.00,,,0.00,WUHU216HW,2013-02-20 16:28:00,
2013-02-20 08:33:00,41.3,33.9,29.95,SW,225,0.0,0.0,75,0.00,,,0.00,WUHU216HW,2013-02-20 16:33:00,
2013-02-20 08:38:00,41.7,34.3,29.96,SW,225,0.0,0.0,75,0.00,,,0.00,WUHU216HW,2013-02-20 16:38:00,
2013-02-20 08:43:00,41.9,34.5,29.96,NW,315,0.0,0.0,75,0.00,,,0.00,WUHU216HW,2013-02-20 16:43:00,
2013-02-20 08:48:00,42.0,34.7,29.95,WSW,248,0.0,0.0,75,0.00,,,0.00,WUHU216HW,2013-02-20 16:48:00,
2013-02-20 08:53:00,42.2,34.5,29.95,WNW,293,1.3,2.9,74,0.00,,,0.00,WUHU216HW,2013-02-20 16:53:00,
2013-02-20 08:58:00,42.4,34.7,29.96,ESE,113,0.0,2.9,74,0.00,,,0.00,WUHU216HW,2013-02-20 16:58:00,
2013-02-20 09:03:00,42.6,34.9,29.96,North,0,0.0,1.3,74,0.00,,,0.00,WUHU216HW,2013-02-20 17:03:00,
2013-02-20 09:08:00,42.9,35.2,29.96,SSW,203,0.0,0.0,74,0.00,,,0.00,WUHU216HW,2013-02-20 17:08:00,
2013-02-20 09:13:00,43.1,35.4,29.96,SE,135,0.0,0.0,74,0.00,,,0.00,WUHU216HW,2013-02-20 17:13:00,
2013-02-20 09:18:00,43.5,35.4,29.96,WNW,293,0.0,0.0,73,0.00,,,0.00,WUHU216HW,2013-02-20 17:18:00,
2013-02-20 09:24:00,43.7,35.2,29.96,WSW,248,0.0,0.0,72,0.00,,,0.00,WUHU216HW,2013-02-20 17:24:00,
2013-02-20 09:29:00,43.8,35.4,29.96,WNW,293,0.0,0.0,72,0.00,,,0.00,WUHU216HW,2013-02-20 17:29:00,
2013-02-20 09:34:00,44.2,35.4,29.96,NE,45,0.0,0.0,71,0.00,,,0.00,WUHU216HW,2013-02-20 17:34:00,
2013-02-20 09:39:00,44.6,35.4,29.96,West,270,0.0,0.0,70,0.00,,,0.00,WUHU216HW,2013-02-20 17:39:00,
2013-02-20 09:44:00,44.9,35.7,29.96,SW,225,0.0,0.0,70,0.00,,,0.00,WUHU216HW,2013-02-20 17:44:00,
2013-02-20 09:49:00,44.9,35.7,29.96,WSW,248,0.0,0.0,70,0.00,,,0.00,WUHU216HW,2013-02-20 17:49:00,
2013-02-20 09:54:00,45.5,36.3,29.96,West,270,0.0,0.0,70,0.00,,,0.00,WUHU216HW,2013-02-20 17:54:00,
2013-02-20 09:59:00,45.6,36.5,29.97,WNW,293,0.0,0.0,70,0.00,,,0.00,WUHU216HW,2013-02-20 17:59:00,
2013-02-20 10:04:00,46.0,36.4,29.97,WNW,293,0.0,0.6,69,0.00,,,0.00,WUHU216HW,2013-02-20 18:04:00,
2013-02-20 10:09:00,46.2,36.2,29.97,SE,135,0.0,0.6,68,0.00,,,0.00,WUHU216HW,2013-02-20 18:09:00,
2013-02-20 10:14:00,46.5,36.1,29.97,WNW,293,0.0,0.0,67,0.00,,,0.00,WUHU216HW,2013-02-20 18:14:00,
2013-02-20 10:19:00,47.1,36.6,29.97,WNW,293,0.0,0.0,67,0.00,,,0.00,WUHU216HW,2013-02-20 18:19:00,
2013-02-20 10:24:00,47.3,36.8,29.97,ESE,113,0.0,0.0,67,0.00,,,0.00,WUHU216HW,2013-02-20 18:24:00,
2013-02-20 10:29:00,47.8,36.9,29.97,WNW,293,0.0,0.0,66,0.00,,,0.00,WUHU216HW,2013-02-20 18:29:00,
2013-02-20 10:34:00,48.0,37.1,29.97,West,270,0.0,0.0,66,0.00,,,0.00,WUHU216HW,2013-02-20 18:34:00,
2013-02-20 10:39:00,48.3,37.1,29.97,WNW,293,1.3,1.3,65,0.00,,,0.00,WUHU216HW,2013-02-20 18:39:00,
2013-02-20 10:44:00,48.7,37.4,29.97,SW,225,0.0,1.3,65,0.00,,,0.00,WUHU216HW,2013-02-20 18:44:00,
2013-02-20 10:49:00,49.1,37.4,29.98,SSW,203,0.0,0.8,64,0.00,,,0.00,WUHU216HW,2013-02-20 18:49:00,
2013-02-20 10:54:00,49.2,37.5,29.98,West,270,0.0,0.0,64,0.00,,,0.00,WUHU216HW,2013-02-20 18:54:00,
2013-02-20 10:59:00,49.8,38.0,29.98,WNW,293,0.0,0.0,64,0.00,,,0.00,WUHU216HW,2013-02-20 18:59:00,
2013-02-20 11:04:00,50.0,38.2,29.98,SW,225,0.0,0.0,64,0.00,,,0.00,WUHU216HW,2013-02-20 19:04:00,
2013-02-20 11:09:00,50.1,38.0,29.97,West,270,0.0,0.0,63,0.00,,,0.00,WUHU216HW,2013-02-20 19:09:00,
2013-02-20 11:14:00,50.7,38.9,29.97,ESE,113,0.0,0.0,64,0.00,,,0.00,WUHU216HW,2013-02-20 19:14:00,
2013-02-20 11:19:00,51.0,38.8,29.97,ESE,113,0.0,0.0,63,0.00,,,0.00,WUHU216HW,2013-02-20 19:19:00,
2013-02-20 11:24:00,51.2,38.6,29.97,SSW,203,0.0,0.0,62,0.00,,,0.00,WUHU216HW,2013-02-20 19:24:00,
2013-02-20 11:29:00,51.6,38.5,29.97,WNW,293,0.0,0.0,61,0.00,,,0.00,WUHU216HW,2013-02-20 19:29:00,
2013-02-20 11:34:00,51.6,38.5,29.97,NW,315,0.0,0.0,61,0.00,,,0.00,WUHU216HW,2013-02-20 19:34:00,
2013-02-20 11:39:00,51.9,38.8,29.97,WNW,293,0.0,0.0,61,0.00,,,0.00,WUHU216HW,2013-02-20 19:39:00,
2013-02-20 11:44:00,52.3,38.8,29.97,West,270,0.0,0.0,60,0.00,,,0.00,WUHU216HW,2013-02-20 19:44:00,
2013-02-20 11:49:00,52.5,39.0,29.98,WSW,248,0.0,0.0,60,0.00,,,0.00,WUHU216HW,2013-02-20 19:49:00,
2013-02-20 11:54:00,52.8,38.9,29.98,SSW,203,2.2,2.2,59,0.00,,,0.00,WUHU216HW,2013-02-20 19:54:00,
2013-02-20 11:59:00,53.4,39.9,29.97,SSW,203,1.1,2.6,60,0.00,,,0.00,WUHU216HW,2013-02-20 19:59:00,
2013-02-20 12:04:00,53.4,39.9,29.97,SSW,203,0.0,2.6,60,0.00,,,0.00,WUHU216HW,2013-02-20 20:04:00,
2013-02-20 12:09:00,53.7,40.2,29.97,SSW,203,2.2,2.2,60,0.00,,,0.00,WUHU216HW,2013-02-20 20:09:00,
2013-02-20 12:14:00,53.9,39.9,29.98,SW,225,1.1,2.4,59,0.00,,,0.00,WUHU216HW,2013-02-20 20:14:00,
2013-02-20 12:19:00,54.1,40.1,29.97,SSE,158,0.0,4.2,59,0.00,,,0.00,WUHU216HW,2013-02-20 20:19:00,
2013-02-20 12:24:00,54.3,40.2,29.97,SSE,158,0.0,4.2,59,0.00,,,0.00,WUHU216HW,2013-02-20 20:24:00,
2013-02-20 12:29:00,54.5,39.9,29.97,West,270,0.0,2.4,58,0.00,,,0.00,WUHU216HW,2013-02-20 20:29:00,
2013-02-20 12:34:00,54.6,40.1,29.97,SSW,203,0.0,3.5,58,0.00,,,0.00,WUHU216HW,2013-02-20 20:34:00,
2013-02-20 12:39:00,55.0,39.9,29.97,SSW,203,0.0,3.5,57,0.00,,,0.00,WUHU216HW,2013-02-20 20:39:00,
2013-02-20 12:44:00,55.0,40.4,29.97,SSW,203,2.9,2.9,58,0.00,,,0.00,WUHU216HW,2013-02-20 20:44:00,
2013-02-20 12:50:00,55.2,40.1,29.97,SSW,203,5.5,5.5,57,0.00,,,0.00,WUHU216HW,2013-02-20 20:50:00,
2013-02-20 12:55:00,55.2,40.1,29.97,SW,225,1.3,5.5,57,0.00,,,0.00,WUHU216HW,2013-02-20 20:55:00,
2013-02-20 13:00:00,55.4,39.8,29.96,SSW,203,1.1,1.5,56,0.00,,,0.00,WUHU216HW,2013-02-20 21:00:00,
2013-02-20 13:05:00,55.5,40.0,29.96,SW,225,0.0,1.3,56,0.00,,,0.00,WUHU216HW,2013-02-20 21:05:00,
2013-02-20 13:10:00,55.7,40.6,29.96,SSW,203,0.0,3.1,57,0.00,,,0.00,WUHU216HW,2013-02-20 21:10:00,
2013-02-20 13:15:00,56.1,41.0,29.96,SSW,203,1.3,3.1,57,0.00,,,0.00,WUHU216HW,2013-02-20 21:15:00,
2013-02-20 13:20:00,56.1,41.0,29.97,SW,225,0.0,1.3,57,0.00,,,0.00,WUHU216HW,2013-02-20 21:20:00,
2013-02-20 13:25:00,56.4,40.9,29.96,SW,225,3.1,3.1,56,0.00,,,0.00,WUHU216HW,2013-02-20 21:25:00,
2013-02-20 13:30:00,56.6,40.6,29.96,SW,225,3.3,4.9,55,0.00,,,0.00,WUHU216HW,2013-02-20 21:30:00,
2013-02-20 13:35:00,56.8,40.8,29.96,SW,225,6.0,6.0,55,0.00,,,0.00,WUHU216HW,2013-02-20 21:35:00,
2013-02-20 13:40:00,56.4,39.5,29.96,SSW,203,0.0,6.0,53,0.00,,,0.00,WUHU216HW,2013-02-20 21:40:00,
2013-02-20 13:45:00,56.4,39.9,29.96,West,270,0.0,6.0,54,0.00,,,0.00,WUHU216HW,2013-02-20 21:45:00,
2013-02-20 13:50:00,56.8,40.3,29.96,SW,225,0.0,2.4,54,0.00,,,0.00,WUHU216HW,2013-02-20 21:50:00,
2013-02-20 13:55:00,56.8,40.3,29.96,SSE,158,1.1,1.1,54,0.00,,,0.00,WUHU216HW,2013-02-20 21:55:00,
2013-02-20 14:00:00,56.8,40.3,29.96,SW,225,0.0,1.1,54,0.00,,,0.00,WUHU216HW,2013-02-20 22:00:00,
2013-02-20 14:05:00,57.0,40.5,29.95,South,180,0.0,1.7,54,0.00,,,0.00,WUHU216HW,2013-02-20 22:05:00,
2013-02-20 14:10:00,57.3,40.4,29.95,SSW,203,0.0,2.6,53,0.00,,,0.00,WUHU216HW,2013-02-20 22:10:00,
2013-02-20 14:16:00,57.3,40.4,29.95,South,180,0.6,3.1,53,0.00,,,0.00,WUHU216HW,2013-02-20 22:16:00,
2013-02-20 14:21:00,57.3,40.4,29.95,South,180,0.0,3.1,53,0.00,,,0.00,WUHU216HW,2013-02-20 22:21:00,
2013-02-20 14:26:00,57.7,40.2,29.94,SSE,158,0.0,2.6,52,0.00,,,0.00,WUHU216HW,2013-02-20 22:26:00,
2013-02-20 14:31:00,57.7,40.2,29.95,SW,225,3.8,5.1,52,0.00,,,0.00,WUHU216HW,2013-02-20 22:31:00,
2013-02-20 14:36:00,57.7,39.7,29.95,SE,135,1.5,5.1,51,0.00,,,0.00,WUHU216HW,2013-02-20 22:36:00,
2013-02-20 14:41:00,57.9,40.4,29.95,SSW,203,0.0,5.1,52,0.00,,,0.00,WUHU216HW,2013-02-20 22:41:00,
2013-02-20 14:46:00,58.1,40.5,29.96,SW,225,0.4,5.1,52,0.00,,,0.00,WUHU216HW,2013-02-20 22:46:00,
2013-02-20 14:51:00,58.1,40.5,29.96,SW,225,4.6,5.1,52,0.00,,,0.00,WUHU216HW,2013-02-20 22:51:00,
2013-02-20 14:57:00,58.2,40.7,29.96,SSW,203,0.0,4.6,52,0.00,,,0.00,WUHU216HW,2013-02-20 22:57:00,
2013-02-20 15:02:00,58.4,40.9,29.96,SW,225,0.0,1.1,52,0.00,,,0.00,WUHU216HW,2013-02-20 23:02:00,
2013-02-20 15:07:00,58.4,40.9,29.95,South,180,0.0,1.1,52,0.00,,,0.00,WUHU216HW,2013-02-20 23:07:00,
2013-02-20 15:12:00,58.6,41.0,29.95,South,180,0.0,0.8,52,0.00,,,0.00,WUHU216HW,2013-02-20 23:12:00,
2013-02-20 15:17:00,58.8,41.2,29.95,SW,225,0.0,1.3,52,0.00,,,0.00,WUHU216HW,2013-02-20 23:17:00,
2013-02-20 15:22:00,58.8,40.7,29.95,NW,315,0.0,1.3,51,0.00,,,0.00,WUHU216HW,2013-02-20 23:22:00,
2013-02-20 15:27:00,58.8,40.7,29.96,WNW,293,0.0,0.0,51,0.00,,,0.00,WUHU216HW,2013-02-20 23:27:00,
2013-02-20 15:32:00,58.8,41.2,29.96,WNW,293,0.0,0.0,52,0.00,,,0.00,WUHU216HW,2013-02-20 23:32:00,
2013-02-20 15:38:00,58.8,40.7,29.96,NW,315,0.0,0.0,51,0.00,,,0.00,WUHU216HW,2013-02-20 23:38:00,
2013-02-20 15:43:00,58.8,40.7,29.96,WNW,293,0.0,0.0,51,0.00,,,0.00,WUHU216HW,2013-02-20 23:43:00,
2013-02-20 15:48:00,58.8,40.7,29.96,NW,315,0.0,0.0,51,0.00,,,0.00,WUHU216HW,2013-02-20 23:48:00,
2013-02-20 15:53:00,58.8,40.7,29.96,SSW,203,2.4,2.4,51,0.00,,,0.00,WUHU216HW,2013-02-20 23:53:00,
2013-02-20 15:58:00,58.8,40.7,29.96,WNW,293,0.0,2.4,51,0.00,,,0.00,WUHU216HW,2013-02-20 23:58:00,
2013-02-20 16:03:00,58.8,40.7,29.96,WNW,293,0.0,2.4,51,0.00,,,0.00,WUHU216HW,2013-02-21 00:03:00,
2013-02-20 16:08:00,58.8,40.7,29.96,NNW,338,0.8,0.8,51,0.00,,,0.00,WUHU216HW,2013-02-21 00:08:00,
2013-02-20 16:13:00,58.8,40.7,29.96,North,0,0.0,0.8,51,0.00,,,0.00,WUHU216HW,2013-02-21 00:13:00,
2013-02-20 16:18:00,58.8,40.7,29.96,WNW,293,0.0,0.0,51,0.00,,,0.00,WUHU216HW,2013-02-21 00:18:00,
2013-02-20 16:24:00,58.8,40.2,29.96,WNW,293,0.0,0.0,50,0.00,,,0.00,WUHU216HW,2013-02-21 00:24:00,
2013-02-20 16:29:00,58.8,40.7,29.96,WNW,293,0.0,0.0,51,0.00,,,0.00,WUHU216HW,2013-02-21 00:29:00,
2013-02-20 16:34:00,58.8,40.7,29.96,West,270,0.0,0.0,51,0.00,,,0.00,WUHU216HW,2013-02-21 00:34:00,
2013-02-20 16:39:00,58.6,40.6,29.97,WNW,293,0.0,0.0,51,0.00,,,0.00,WUHU216HW,2013-02-21 00:39:00,
2013-02-20 16:44:00,58.6,40.6,29.97,West,270,0.0,0.0,51,0.00,,,0.00,WUHU216HW,2013-02-21 00:44:00,
2013-02-20 16:49:00,58.4,40.9,29.97,NW,315,0.0,1.5,52,0.00,,,0.00,WUHU216HW,2013-02-21 00:49:00,
2013-02-20 16:54:00,58.2,41.2,29.97,WNW,293,0.0,1.5,53,0.00,,,0.00,WUHU216HW,2013-02-21 00:54:00,
2013-02-20 16:59:00,57.9,40.8,29.97,West,270,0.0,0.0,53,0.00,,,0.00,WUHU216HW,2013-02-21 00:59:00,
2013-02-20 17:04:00,57.7,40.7,29.97,WNW,293,0.0,0.0,53,0.00,,,0.00,WUHU216HW,2013-02-21 01:04:00,
2013-02-20 17:09:00,57.5,41.0,29.97,WNW,293,0.0,0.0,54,0.00,,,0.00,WUHU216HW,2013-02-21 01:09:00,
2013-02-20 17:14:00,57.3,40.8,29.97,WNW,293,0.0,0.0,54,0.00,,,0.00,WUHU216HW,2013-02-21 01:14:00,
2013-02-20 17:19:00,57.0,40.5,29.97,North,0,0.0,0.0,54,0.00,,,0.00,WUHU216HW,2013-02-21 01:19:00,
2013-02-20 17:24:00,56.6,40.1,29.97,WNW,293,0.0,0.0,54,0.00,,,0.00,WUHU216HW,2013-02-21 01:24:00,
2013-02-20 17:29:00,56.1,40.1,29.97,NNE,23,0.0,0.0,55,0.00,,,0.00,WUHU216HW,2013-02-21 01:29:00,
2013-02-20 17:34:00,55.9,39.9,29.98,WNW,293,0.0,0.0,55,0.00,,,0.00,WUHU216HW,2013-02-21 01:34:00,
2013-02-20 17:39:00,55.7,40.2,29.98,West,270,0.0,0.0,56,0.00,,,0.00,WUHU216HW,2013-02-21 01:39:00,
2013-02-20 17:44:00,55.5,40.0,29.97,West,270,0.0,0.0,56,0.00,,,0.00,WUHU216HW,2013-02-21 01:44:00,
2013-02-20 17:49:00,55.4,39.8,29.97,West,270,0.0,0.0,56,0.00,,,0.00,WUHU216HW,2013-02-21 01:49:00,
2013-02-20 17:54:00,55.2,40.1,29.97,West,270,0.0,0.0,57,0.00,,,0.00,WUHU216HW,2013-02-21 01:54:00,
2013-02-20 18:00:00,55.0,39.9,29.98,West,270,0.0,0.0,57,0.00,,,0.00,WUHU216HW,2013-02-21 02:00:00,
2013-02-20 18:05:00,54.6,40.1,29.98,West,270,0.0,0.0,58,0.00,,,0.00,WUHU216HW,2013-02-21 02:05:00,
2013-02-20 18:10:00,54.5,39.9,29.98,West,270,0.0,0.0,58,0.00,,,0.00,WUHU216HW,2013-02-21 02:10:00,
2013-02-20 18:15:00,54.3,40.2,29.98,West,270,0.0,0.0,59,0.00,,,0.00,WUHU216HW,2013-02-21 02:15:00,
2013-02-20 18:20:00,53.9,39.9,29.98,West,270,0.0,0.0,59,0.00,,,0.00,WUHU216HW,2013-02-21 02:20:00,
2013-02-20 18:25:00,53.7,39.7,29.98,West,270,0.0,0.0,59,0.00,,,0.00,WUHU216HW,2013-02-21 02:25:00,
2013-02-20 18:30:00,53.4,39.9,29.98,West,270,0.0,0.0,60,0.00,,,0.00,WUHU216HW,2013-02-21 02:30:00,
2013-02-20 18:35:00,53.2,39.7,29.98,West,270,0.0,0.0,60,0.00,,,0.00,WUHU216HW,2013-02-21 02:35:00,
2013-02-20 18:40:00,52.8,39.7,29.98,West,270,0.0,0.0,61,0.00,,,0.00,WUHU216HW,2013-02-21 02:40:00,
2013-02-20 18:45:00,52.5,39.4,29.98,West,270,0.0,0.0,61,0.00,,,0.00,WUHU216HW,2013-02-21 02:45:00,
2013-02-20 18:50:00,52.3,39.2,29.98,West,270,0.0,0.0,61,0.00,,,0.00,WUHU216HW,2013-02-21 02:50:00,
2013-02-20 18:55:00,52.1,39.4,29.98,SW,225,0.0,0.0,62,0.00,,,0.00,WUHU216HW,2013-02-21 02:55:00,
2013-02-20 19:00:00,51.9,39.2,29.98,SW,225,0.0,0.0,62,0.00,,,0.00,WUHU216HW,2013-02-21 03:00:00,
2013-02-20 19:05:00,51.6,38.9,29.99,SW,225,0.0,0.0,62,0.00,,,0.00,WUHU216HW,2013-02-21 03:05:00,
2013-02-20 19:10:00,51.6,39.3,29.99,SW,225,0.0,0.0,63,0.00,,,0.00,WUHU216HW,2013-02-21 03:10:00,
2013-02-20 19:15:00,51.2,39.0,29.99,SW,225,0.0,0.0,63,0.00,,,0.00,WUHU216HW,2013-02-21 03:15:00,
2013-02-20 19:20:00,50.7,38.5,29.99,SW,225,0.0,0.0,63,0.00,,,0.00,WUHU216HW,2013-02-21 03:20:00,
2013-02-20 19:26:00,50.5,38.7,29.99,SW,225,0.0,0.0,64,0.00,,,0.00,WUHU216HW,2013-02-21 03:26:00,
2013-02-20 19:30:00,50.3,38.5,29.99,SW,225,0.0,0.0,64,0.00,,,0.00,WUHU216HW,2013-02-21 03:30:00,
2013-02-20 19:36:00,50.1,38.8,30.00,SW,225,0.0,0.0,65,0.00,,,0.00,WUHU216HW,2013-02-21 03:36:00,
2013-02-20 19:41:00,50.1,38.8,30.01,SW,225,0.0,0.0,65,0.00,,,0.00,WUHU216HW,2013-02-21 03:41:00,
2013-02-20 19:46:00,49.8,38.4,30.01,SW,225,0.0,0.0,65,0.00,,,0.00,WUHU216HW,2013-02-21 03:46:00,
2013-02-20 19:51:00,49.8,38.4,30.01,SW,225,0.0,0.0,65,0.00,,,0.00,WUHU216HW,2013-02-21 03:51:00,
2013-02-20 19:56:00,49.6,38.3,30.01,SW,225,0.0,0.0,65,0.00,,,0.00,WUHU216HW,2013-02-21 03:56:00,
2013-02-20 20:01:00,49.2,38.3,30.01,SW,225,0.0,0.0,66,0.00,,,0.00,WUHU216HW,2013-02-21 04:01:00,
2013-02-20 20:06:00,49.2,38.3,30.02,SW,225,0.0,0.0,66,0.00,,,0.00,WUHU216HW,2013-02-21 04:06:00,
2013-02-20 20:11:00,49.2,38.5,30.01,SW,225,0.0,0.0,67,0.00,,,0.00,WUHU216HW,2013-02-21 04:11:00,
2013-02-20 20:16:00,49.1,38.5,30.01,SW,225,0.0,0.0,67,0.00,,,0.00,WUHU216HW,2013-02-21 04:16:00,
2013-02-20 20:21:00,49.1,38.5,30.02,SW,225,0.0,0.0,67,0.00,,,0.00,WUHU216HW,2013-02-21 04:21:00,
2013-02-20 20:26:00,48.9,38.3,30.02,SW,225,0.0,0.0,67,0.00,,,0.00,WUHU216HW,2013-02-21 04:26:00,
2013-02-20 20:31:00,48.9,38.3,30.02,SW,225,0.0,0.0,67,0.00,,,0.00,WUHU216HW,2013-02-21 04:31:00,
2013-02-20 20:36:00,48.7,38.2,30.02,SW,225,0.0,0.0,67,0.00,,,0.00,WUHU216HW,2013-02-21 04:36:00,
2013-02-20 20:41:00,48.7,38.2,30.01,SW,225,0.0,0.0,67,0.00,,,0.00,WUHU216HW,2013-02-21 04:41:00,
2013-02-20 20:46:00,48.5,38.0,30.02,SW,225,0.0,0.0,67,0.00,,,0.00,WUHU216HW,2013-02-21 04:46:00,
2013-02-20 20:52:00,48.3,37.8,30.02,SW,225,0.0,0.0,67,0.00,,,0.00,WUHU216HW,2013-02-21 04:52:00,
2013-02-20 20:57:00,48.3,38.2,30.02,SW,225,0.0,0.0,68,0.00,,,0.00,WUHU216HW,2013-02-21 04:57:00,
2013-02-20 21:00:00,48.3,38.2,30.02,SW,225,0.0,0.0,68,0.00,,,0.00,WUHU216HW,2013-02-21 05:00:00,
2013-02-20 21:06:00,48.2,38.0,30.02,SW,225,0.0,0.0,68,0.00,,,0.00,WUHU216HW,2013-02-21 05:06:00,
2013-02-20 21:11:00,48.0,37.9,30.02,SW,225,0.0,0.0,68,0.00,,,0.00,WUHU216HW,2013-02-21 05:11:00,
2013-02-20 21:16:00,48.0,37.9,30.02,SW,225,0.0,0.0,68,0.00,,,0.00,WUHU216HW,2013-02-21 05:16:00,
2013-02-20 21:21:00,48.0,37.9,30.02,SW,225,0.0,0.0,68,0.00,,,0.00,WUHU216HW,2013-02-21 05:21:00,
2013-02-20 21:26:00,47.8,37.7,30.02,SW,225,0.0,0.0,68,0.00,,,0.00,WUHU216HW,2013-02-21 05:26:00,
2013-02-20 21:31:00,47.8,37.7,30.03,SW,225,0.0,0.0,68,0.00,,,0.00,WUHU216HW,2013-02-21 05:31:00,
2013-02-20 21:36:00,47.6,37.9,30.03,SW,225,0.0,0.0,69,0.00,,,0.00,WUHU216HW,2013-02-21 05:36:00,
2013-02-20 21:41:00,47.4,37.7,30.03,SW,225,0.0,0.0,69,0.00,,,0.00,WUHU216HW,2013-02-21 05:41:00,
2013-02-20 21:46:00,47.3,37.6,30.03,SW,225,0.0,0.0,69,0.00,,,0.00,WUHU216HW,2013-02-21 05:46:00,
2013-02-20 21:51:00,47.1,37.4,30.04,SW,225,0.0,0.0,69,0.00,,,0.00,WUHU216HW,2013-02-21 05:51:00,
2013-02-20 21:56:00,47.1,37.4,30.04,SW,225,0.0,0.0,69,0.00,,,0.00,WUHU216HW,2013-02-21 05:56:00,
2013-02-20 22:01:00,46.9,37.3,30.04,SW,225,0.0,0.0,69,0.00,,,0.00,WUHU216HW,2013-02-21 06:01:00,
2013-02-20 22:06:00,46.9,37.3,30.04,SW,225,0.0,0.0,69,0.00,,,0.00,WUHU216HW,2013-02-21 06:06:00,
2013-02-20 22:11:00,46.5,36.9,30.04,SW,225,0.0,0.0,69,0.00,,,0.00,WUHU216HW,2013-02-21 06:11:00,
2013-02-20 22:17:00,46.5,36.9,30.04,SW,225,0.0,0.0,69,0.00,,,0.00,WUHU216HW,2013-02-21 06:17:00,
2013-02-20 22:22:00,46.4,37.2,30.04,SW,225,0.0,0.0,70,0.00,,,0.00,WUHU216HW,2013-02-21 06:22:00,
2013-02-20 22:27:00,46.2,37.0,30.04,SW,225,0.0,0.0,70,0.00,,,0.00,WUHU216HW,2013-02-21 06:27:00,
2013-02-20 22:32:00,46.2,37.0,30.04,SW,225,0.0,0.0,70,0.00,,,0.00,WUHU216HW,2013-02-21 06:32:00,
2013-02-20 22:37:00,46.0,36.8,30.04,SW,225,0.0,0.0,70,0.00,,,0.00,WUHU216HW,2013-02-21 06:37:00,
2013-02-20 22:42:00,46.0,37.2,30.04,SW,225,0.0,0.0,71,0.00,,,0.00,WUHU216HW,2013-02-21 06:42:00,
2013-02-20 22:47:00,45.8,37.0,30.03,SW,225,0.0,0.0,71,0.00,,,0.00,WUHU216HW,2013-02-21 06:47:00,
2013-02-20 22:52:00,45.6,36.8,30.03,SW,225,0.0,0.0,71,0.00,,,0.00,WUHU216HW,2013-02-21 06:52:00,
2013-02-20 22:57:00,45.6,36.8,30.03,SW,225,0.0,0.0,71,0.00,,,0.00,WUHU216HW,2013-02-21 06:57:00,
2013-02-20 23:03:00,45.5,36.6,30.02,SW,225,0.0,0.0,71,0.00,,,0.00,WUHU216HW,2013-02-21 07:03:00,
2013-02-20 23:08:00,45.3,36.4,30.03,SW,225,0.0,0.0,71,0.00,,,0.00,WUHU216HW,2013-02-21 07:08:00,
2013-02-20 23:13:00,45.3,36.4,30.03,SW,225,0.0,0.0,71,0.00,,,0.00,WUHU216HW,2013-02-21 07:13:00,
2013-02-20 23:18:00,45.1,36.3,30.03,SW,225,0.0,0.0,71,0.00,,,0.00,WUHU216HW,2013-02-21 07:18:00,
2013-02-20 23:23:00,44.9,36.1,30.03,SW,225,0.0,0.0,71,0.00,,,0.00,WUHU216HW,2013-02-21 07:23:00,
2013-02-20 23:28:00,44.7,36.2,30.03,SW,225,0.0,0.0,72,0.00,,,0.00,WUHU216HW,2013-02-21 07:28:00,
2013-02-20 23:33:00,44.6,36.1,30.02,SW,225,0.0,0.0,72,0.00,,,0.00,WUHU216HW,2013-02-21 07:33:00,
2013-02-20 23:38:00,44.7,36.2,30.03,SW,225,0.0,0.0,72,0.00,,,0.00,WUHU216HW,2013-02-21 07:38:00,
2013-02-20 23:43:00,44.7,36.2,30.03,SW,225,0.0,0.0,72,0.00,,,0.00,WUHU216HW,2013-02-21 07:43:00,
2013-02-20 23:48:00,44.6,36.1,30.03,SW,225,0.0,0.0,72,0.00,,,0.00,WUHU216HW,2013-02-21 07:48:00,
2013-02-20 23:53:00,44.4,36.2,30.04,SW,225,0.0,0.0,73,0.00,,,0.00,WUHU216HW,2013-02-21 07:53:00,
2013-02-20 23:58:00,44.4,36.2,30.03,SW,225,0.0,0.0,73,0.00,,,0.00,WUHU216HW,2013-02-21 07:58:00,